Time;durP1;ratioP1;P1;durP2;ratioP2;P2;SDS_P1;SDS_P2;PMS_P1;PMS_P2;Temp;Humidity;BMP_temperature;BMP_pressure;BME280_temperature;BME280_humidity;BME280_pressure;Samples;Min_cycle;Max_cycle;Signal;HPM_P1;HPM_P2
2021/05/20 00:00:37;;;;;;;8.17;4.07;;;11.60;99.90;;;;;;4154411;28;20088;-63
2021/05/20 00:02:38;;;;;;;7.27;4.07;;;11.60;99.90;;;;;;4155447;28;20453;-61
2021/05/20 00:04:40;;;;;;;4.37;3.23;;;11.60;99.90;;;;;;4154468;28;20087;-61
2021/05/20 00:06:41;;;;;;;3.90;3.33;;;11.60;99.90;;;;;;4154867;28;20029;-64
2021/05/20 00:08:42;;;;;;;3.63;3.33;;;11.50;99.90;;;;;;4155262;28;20536;-63
2021/05/20 00:10:44;;;;;;;5.57;3.77;;;11.50;99.90;;;;;;4155203;28;20072;-68
2021/05/20 00:12:45;;;;;;;4.10;3.63;;;11.50;99.90;;;;;;4154520;28;20540;-61
2021/05/20 00:14:46;;;;;;;5.50;3.67;;;11.50;99.90;;;;;;4155144;28;20080;-60
2021/05/20 00:16:47;;;;;;;5.60;3.43;;;11.50;99.90;;;;;;4154794;28;20033;-59
2021/05/20 00:18:49;;;;;;;4.27;3.03;;;11.40;99.90;;;;;;4155410;28;20554;-63
2021/05/20 00:20:50;;;;;;;3.77;2.97;;;11.50;99.90;;;;;;4154827;28;20135;-68
2021/05/20 00:22:52;;;;;;;4.87;3.30;;;11.50;99.90;;;;;;4154185;28;20611;-61
2021/05/20 00:24:53;;;;;;;4.60;3.40;;;11.40;99.90;;;;;;4155383;28;20079;-66
2021/05/20 00:26:54;;;;;;;4.20;3.20;;;11.40;99.90;;;;;;4154355;28;20064;-60
2021/05/20 00:28:55;;;;;;;5.50;3.43;;;11.40;99.90;;;;;;4154779;28;20087;-60
2021/05/20 00:30:56;;;;;;;6.00;3.47;;;11.30;99.90;;;;;;4154722;28;20033;-61
2021/05/20 00:32:57;;;;;;;7.83;3.37;;;11.40;99.90;;;;;;4155420;28;20107;-61
2021/05/20 00:34:58;;;;;;;5.60;3.50;;;11.30;99.90;;;;;;4154052;28;20033;-60
2021/05/20 00:36:59;;;;;;;8.07;4.87;;;11.30;99.90;;;;;;4155377;28;20033;-63
2021/05/20 00:39:02;;;;;;;8.10;4.50;;;11.30;99.90;;;;;;4154533;28;20025;-60
2021/05/20 00:41:04;;;;;;;5.77;4.33;;;11.30;99.90;;;;;;4155166;28;20068;-59
2021/05/20 00:43:05;;;;;;;7.87;4.63;;;11.30;99.90;;;;;;4154213;28;20421;-60
2021/05/20 00:45:07;;;;;;;12.20;5.40;;;11.30;99.90;;;;;;4154227;28;20095;-60
2021/05/20 00:47:08;;;;;;;8.27;4.57;;;11.30;99.90;;;;;;4154937;28;20079;-61
2021/05/20 00:49:12;;;;;;;9.03;4.90;;;11.20;99.90;;;;;;4144261;28;20088;-60
2021/05/20 00:51:13;;;;;;;9.13;5.47;;;11.20;99.90;;;;;;4138760;28;20088;-61
2021/05/20 00:53:16;;;;;;;7.57;4.00;;;11.20;99.90;;;;;;4138156;28;20030;-65
2021/05/20 00:55:19;;;;;;;6.03;3.90;;;11.20;99.90;;;;;;4138806;28;20034;-61
2021/05/20 00:57:21;;;;;;;6.47;4.17;;;11.20;99.90;;;;;;4137932;28;20025;-60
2021/05/20 00:59:23;;;;;;;7.47;3.73;;;11.20;99.90;;;;;;4143959;28;20029;-60
2021/05/20 01:01:24;;;;;;;4.47;2.87;;;11.20;99.90;;;;;;4154414;28;20497;-61
2021/05/20 01:03:25;;;;;;;6.10;2.80;;;11.20;99.90;;;;;;4155143;28;20038;-59
2021/05/20 01:05:27;;;;;;;4.63;2.70;;;11.20;99.90;;;;;;4153797;28;20544;-60
2021/05/20 01:07:28;;;;;;;3.90;3.10;;;11.20;99.90;;;;;;4154610;28;20112;-66
2021/05/20 01:09:31;;;;;;;6.17;2.87;;;11.20;99.90;;;;;;4154595;28;20079;-67
2021/05/20 01:11:34;;;;;;;5.00;2.90;;;11.20;99.90;;;;;;4155215;28;20083;-61
2021/05/20 01:13:35;;;;;;;4.43;3.20;;;11.20;99.90;;;;;;4153808;28;20087;-58
2021/05/20 01:15:37;;;;;;;4.30;3.00;;;11.20;99.90;;;;;;4155317;28;20079;-64
2021/05/20 01:17:38;;;;;;;4.90;2.77;;;11.20;99.90;;;;;;4154144;28;20049;-60
2021/05/20 01:19:43;;;;;;;3.17;2.80;;;11.10;99.90;;;;;;4154279;28;20099;-60
2021/05/20 01:21:44;;;;;;;4.97;3.30;;;11.10;99.90;;;;;;4154557;28;20083;-60
2021/05/20 01:23:45;;;;;;;3.43;2.97;;;11.20;99.90;;;;;;4154495;28;20099;-61
2021/05/20 01:25:49;;;;;;;4.00;3.17;;;11.20;99.90;;;;;;4154663;28;20022;-58
2021/05/20 01:27:52;;;;;;;4.47;2.80;;;11.20;99.90;;;;;;4154366;28;20444;-59
2021/05/20 01:29:53;;;;;;;4.67;3.33;;;11.20;99.90;;;;;;4154930;28;20045;-62
2021/05/20 01:31:55;;;;;;;4.53;3.40;;;11.20;99.90;;;;;;4156405;28;20072;-58
2021/05/20 01:33:56;;;;;;;5.97;3.50;;;11.20;99.90;;;;;;4157419;28;20879;-61
2021/05/20 01:35:57;;;;;;;4.17;3.03;;;11.30;99.90;;;;;;4157054;28;20034;-61
2021/05/20 01:40:25;;;;;;;4.27;2.70;;;11.30;99.90;;;;;;4154097;28;20556;-59
2021/05/20 01:42:27;;;;;;;4.37;3.27;;;11.30;99.90;;;;;;4156986;28;20045;-69
2021/05/20 01:44:28;;;;;;;5.97;2.97;;;11.30;99.90;;;;;;4157168;28;20030;-60
2021/05/20 01:46:29;;;;;;;5.10;3.57;;;11.30;99.90;;;;;;4157738;28;20045;-60
2021/05/20 01:48:34;;;;;;;6.67;3.50;;;11.30;99.90;;;;;;4156867;28;20037;-59
2021/05/20 01:50:35;;;;;;;6.10;3.53;;;11.40;99.90;;;;;;4156597;28;20123;-67
2021/05/20 01:52:36;;;;;;;4.37;3.33;;;11.40;99.90;;;;;;4156994;28;20021;-64
2021/05/20 01:54:37;;;;;;;5.93;3.10;;;11.40;99.90;;;;;;4157390;28;20034;-61
2021/05/20 01:56:39;;;;;;;4.83;2.60;;;11.40;99.90;;;;;;4156258;28;20045;-61
2021/05/20 01:58:40;;;;;;;6.80;3.13;;;11.40;99.90;;;;;;4157257;28;20021;-61
2021/05/20 02:00:41;;;;;;;9.03;3.17;;;11.50;99.90;;;;;;4156655;28;20099;-59
2021/05/20 02:02:44;;;;;;;8.00;4.47;;;11.50;99.90;;;;;;4156168;28;20397;-69
2021/05/20 02:04:45;;;;;;;4.23;3.40;;;11.50;99.90;;;;;;4156775;28;20088;-60
2021/05/20 02:06:46;;;;;;;4.93;3.70;;;11.40;99.90;;;;;;4156547;28;20843;-66
2021/05/20 02:08:47;;;;;;;5.07;4.23;;;11.40;99.90;;;;;;4158063;28;20029;-61
2021/05/20 02:10:48;;;;;;;6.60;3.57;;;11.40;99.90;;;;;;4157034;28;20451;-68
2021/05/20 02:12:49;;;;;;;6.27;4.20;;;11.40;99.90;;;;;;4157324;28;20469;-67
2021/05/20 02:14:50;;;;;;;5.93;3.57;;;11.30;99.90;;;;;;4156291;28;20119;-63
2021/05/20 02:16:52;;;;;;;4.77;3.90;;;11.30;99.90;;;;;;4157392;28;20084;-61
2021/05/20 02:18:53;;;;;;;6.40;4.23;;;11.30;99.90;;;;;;4156169;28;20443;-59
2021/05/20 02:20:54;;;;;;;5.07;3.87;;;11.30;99.90;;;;;;4156824;28;20091;-58
2021/05/20 02:22:55;;;;;;;7.23;4.63;;;11.30;99.90;;;;;;4156065;28;20042;-57
2021/05/20 02:24:56;;;;;;;5.33;4.20;;;11.30;99.90;;;;;;4156370;28;20099;-60
2021/05/20 02:26:57;;;;;;;7.80;5.27;;;11.20;99.90;;;;;;4155731;28;20041;-61
2021/05/20 02:28:58;;;;;;;7.57;4.70;;;11.30;99.90;;;;;;4156158;28;20034;-60
2021/05/20 02:31:00;;;;;;;5.97;4.80;;;11.20;99.90;;;;;;4156302;28;20053;-62
2021/05/20 02:33:01;;;;;;;7.67;5.00;;;11.30;99.90;;;;;;4156739;28;20041;-62
2021/05/20 02:35:04;;;;;;;7.40;4.73;;;11.30;99.90;;;;;;4156451;28;20092;-65
2021/05/20 02:37:05;;;;;;;8.40;5.07;;;11.30;99.90;;;;;;4155150;28;20050;-60
2021/05/20 02:39:07;;;;;;;9.10;5.07;;;11.30;99.90;;;;;;4156957;28;20045;-60
2021/05/20 02:41:08;;;;;;;7.63;4.90;;;11.20;99.90;;;;;;4155472;28;20080;-68
2021/05/20 02:43:09;;;;;;;7.30;4.43;;;11.20;99.90;;;;;;4156097;28;20033;-61
2021/05/20 02:45:19;;;;;;;5.10;3.77;;;11.20;99.90;;;;;;4156383;28;20392;-62
2021/05/20 02:47:20;;;;;;;5.10;3.92;;;11.20;99.90;;;;;;4156195;28;20471;-63
2021/05/20 02:49:22;;;;;;;5.47;3.80;;;11.20;99.90;;;;;;4156045;28;20025;-61
2021/05/20 02:51:23;;;;;;;7.00;5.00;;;11.20;99.90;;;;;;4156679;28;20033;-70
2021/05/20 02:53:24;;;;;;;7.23;4.60;;;11.20;99.90;;;;;;4155697;28;20063;-61
2021/05/20 02:55:27;;;;;;;9.17;5.00;;;11.30;99.90;;;;;;4156942;28;20021;-67
2021/05/20 02:57:28;;;;;;;5.23;4.40;;;11.30;99.90;;;;;;4155342;28;20482;-61
2021/05/20 02:59:30;;;;;;;7.27;4.70;;;11.30;99.90;;;;;;4156406;28;20026;-60
2021/05/20 03:01:35;;;;;;;5.90;4.47;;;11.30;99.90;;;;;;4155752;28;21083;-69
2021/05/20 03:03:36;;;;;;;5.00;4.13;;;11.30;99.90;;;;;;4155746;28;20592;-68
2021/05/20 03:05:37;;;;;;;6.43;5.20;;;11.40;99.90;;;;;;4156481;28;20096;-72
2021/05/20 03:07:38;;;;;;;4.70;3.77;;;11.40;99.90;;;;;;4156279;28;20033;-70
2021/05/20 03:09:40;;;;;;;5.63;4.20;;;11.40;99.90;;;;;;4156668;28;20564;-68
2021/05/20 03:11:41;;;;;;;5.03;4.07;;;11.40;99.90;;;;;;4155456;28;20080;-70
2021/05/20 03:13:42;;;;;;;6.57;3.77;;;11.40;99.90;;;;;;4156118;28;20088;-61
2021/05/20 03:15:43;;;;;;;4.77;3.97;;;11.30;99.90;;;;;;4155650;28;20800;-61
2021/05/20 03:17:44;;;;;;;4.40;4.00;;;11.30;99.90;;;;;;4154910;28;20038;-57
2021/05/20 03:19:45;;;;;;;5.90;4.30;;;11.40;99.90;;;;;;4154809;28;20033;-65
2021/05/20 03:21:47;;;;;;;7.57;4.53;;;11.30;99.90;;;;;;4156356;28;20541;-61
2021/05/20 03:23:48;;;;;;;8.73;3.87;;;11.30;99.90;;;;;;4154603;28;20099;-61
2021/05/20 03:25:49;;;;;;;8.43;4.60;;;11.30;99.90;;;;;;4156241;28;20053;-62
2021/05/20 03:27:51;;;;;;;4.60;3.77;;;11.30;99.90;;;;;;4154758;28;20071;-61
2021/05/20 03:29:52;;;;;;;3.80;3.47;;;11.30;99.90;;;;;;4156288;28;20049;-63
2021/05/20 03:31:53;;;;;;;6.27;3.83;;;11.20;99.90;;;;;;4154799;28;20786;-61
2021/05/20 03:33:54;;;;;;;5.40;4.47;;;11.20;99.90;;;;;;4156031;28;20026;-62
2021/05/20 03:35:57;;;;;;;6.47;4.30;;;11.20;99.90;;;;;;4155743;28;20029;-61
2021/05/20 03:37:58;;;;;;;5.03;4.23;;;11.20;99.90;;;;;;4155837;28;20071;-70
2021/05/20 03:39:59;;;;;;;3.90;3.50;;;11.20;99.90;;;;;;4155519;28;20041;-62
2021/05/20 03:42:01;;;;;;;6.40;4.47;;;11.20;99.90;;;;;;4155240;28;20087;-63
2021/05/20 03:44:02;;;;;;;4.60;3.97;;;11.20;99.90;;;;;;4155441;28;20033;-61
2021/05/20 03:46:04;;;;;;;5.67;4.10;;;11.20;99.90;;;;;;4155709;28;20033;-62
2021/05/20 03:48:06;;;;;;;6.60;3.70;;;11.20;99.90;;;;;;4155481;28;20091;-67
2021/05/20 03:50:07;;;;;;;10.27;4.27;;;11.30;99.90;;;;;;4154852;28;20081;-68
2021/05/20 03:52:08;;;;;;;6.47;3.83;;;11.30;99.90;;;;;;4155537;28;20034;-71
2021/05/20 03:54:10;;;;;;;7.50;3.97;;;11.30;99.90;;;;;;4154153;28;20042;-61
2021/05/20 03:56:11;;;;;;;5.50;4.07;;;11.30;99.90;;;;;;4155109;28;20504;-62
2021/05/20 03:58:12;;;;;;;5.13;4.63;;;11.30;99.90;;;;;;4154898;28;20090;-62
2021/05/20 04:00:14;;;;;;;4.97;3.97;;;11.30;99.90;;;;;;4154510;28;20096;-66
2021/05/20 04:02:15;;;;;;;7.30;4.30;;;11.30;99.90;;;;;;4153950;28;20575;-66
2021/05/20 04:04:16;;;;;;;6.90;4.07;;;11.30;99.90;;;;;;4155256;28;20045;-71
2021/05/20 04:06:17;;;;;;;4.20;3.80;;;11.30;99.90;;;;;;4154638;28;20025;-68
2021/05/20 04:08:18;;;;;;;6.33;3.97;;;11.30;99.90;;;;;;4155007;28;20095;-68
2021/05/20 04:10:19;;;;;;;6.57;4.20;;;11.30;99.90;;;;;;4155405;28;20049;-70
2021/05/20 04:12:21;;;;;;;4.80;3.80;;;11.30;99.90;;;;;;4154395;28;20036;-62
2021/05/20 04:14:23;;;;;;;5.27;3.90;;;11.40;99.90;;;;;;4147115;28;20076;-63
2021/05/20 04:16:25;;;;;;;5.33;3.83;;;11.40;99.90;;;;;;4138365;28;20038;-72
2021/05/20 04:18:27;;;;;;;4.17;3.50;;;11.40;99.90;;;;;;4138255;28;20084;-65
2021/05/20 04:20:28;;;;;;;3.83;3.27;;;11.40;99.90;;;;;;4151295;28;20457;-66
2021/05/20 04:22:29;;;;;;;5.20;3.93;;;11.40;99.90;;;;;;4154774;28;20091;-63
2021/05/20 04:24:32;;;;;;;3.90;3.50;;;11.40;99.90;;;;;;4154486;28;20079;-66
2021/05/20 04:26:33;;;;;;;4.97;3.63;;;11.40;99.90;;;;;;4154560;28;20084;-69
2021/05/20 04:28:34;;;;;;;4.77;3.87;;;11.50;99.90;;;;;;4154059;28;20071;-73
2021/05/20 04:30:35;;;;;;;4.23;3.83;;;11.50;99.90;;;;;;4154630;28;20393;-64
2021/05/20 04:32:36;;;;;;;4.33;3.13;;;11.50;99.90;;;;;;4154431;28;20037;-63
2021/05/20 04:34:37;;;;;;;5.20;3.60;;;11.50;99.90;;;;;;4155017;28;20045;-76
2021/05/20 04:36:39;;;;;;;7.93;4.03;;;11.40;99.90;;;;;;4154101;28;20087;-63
2021/05/20 04:38:41;;;;;;;6.80;4.00;;;11.40;99.90;;;;;;4154423;28;20095;-60
2021/05/20 04:40:42;;;;;;;5.17;4.20;;;11.40;99.90;;;;;;4154948;28;20038;-67
2021/05/20 04:42:44;;;;;;;7.27;4.13;;;11.40;99.90;;;;;;4153771;28;20048;-64
2021/05/20 04:44:45;;;;;;;7.27;4.57;;;11.40;99.90;;;;;;4154048;28;20037;-65
2021/05/20 04:46:46;;;;;;;5.00;3.87;;;11.40;99.90;;;;;;4153863;28;20049;-76
2021/05/20 04:48:47;;;;;;;6.87;3.90;;;11.40;99.90;;;;;;4154542;28;20095;-67
2021/05/20 04:50:48;;;;;;;6.13;4.13;;;11.40;99.90;;;;;;4153877;28;20129;-60
2021/05/20 04:52:49;;;;;;;7.77;3.87;;;11.40;99.90;;;;;;4152098;28;20053;-66
2021/05/20 04:54:51;;;;;;;6.17;4.30;;;11.30;99.90;;;;;;4153779;28;20107;-60
2021/05/20 04:56:52;;;;;;;6.93;4.23;;;11.30;99.90;;;;;;4153868;28;20804;-65
2021/05/20 04:58:53;;;;;;;6.10;4.03;;;11.30;99.90;;;;;;4152587;28;20823;-62
2021/05/20 05:00:54;;;;;;;5.87;3.83;;;11.30;99.90;;;;;;4154950;28;20025;-69
2021/05/20 05:02:55;;;;;;;5.37;3.73;;;11.30;99.90;;;;;;4153965;28;20050;-65
2021/05/20 05:04:56;;;;;;;5.23;3.97;;;11.30;99.90;;;;;;4154474;28;20052;-74
2021/05/20 05:06:57;;;;;;;5.80;4.50;;;11.40;99.90;;;;;;4156602;28;20033;-72
2021/05/20 05:08:58;;;;;;;6.00;5.07;;;11.40;99.90;;;;;;4156038;28;20528;-64
2021/05/20 05:10:59;;;;;;;5.47;4.20;;;11.50;99.90;;;;;;4157670;28;20053;-75
2021/05/20 05:13:01;;;;;;;9.77;5.47;;;11.40;99.90;;;;;;4156916;28;20489;-62
2021/05/20 05:15:04;;;;;;;6.20;4.93;;;11.50;99.90;;;;;;4157367;28;20025;-62
2021/05/20 05:17:05;;;;;;;6.57;4.57;;;11.50;99.90;;;;;;4156496;28;20041;-58
2021/05/20 05:19:07;;;;;;;7.30;4.90;;;11.50;99.90;;;;;;4156253;28;20033;-62
2021/05/20 05:21:08;;;;;;;8.40;5.47;;;11.60;99.90;;;;;;4157167;28;20026;-72
2021/05/20 05:23:09;;;;;;;8.00;5.27;;;11.60;99.90;;;;;;4157153;28;20123;-64
2021/05/20 05:25:10;;;;;;;8.97;5.50;;;11.60;99.90;;;;;;4156775;28;20026;-61
2021/05/20 05:27:12;;;;;;;6.63;5.27;;;11.60;99.90;;;;;;4156300;28;20083;-60
2021/05/20 05:29:13;;;;;;;11.50;5.80;;;11.60;99.90;;;;;;4155861;28;20033;-62
2021/05/20 05:31:17;;;;;;;6.77;5.50;;;11.70;99.90;;;;;;4157317;28;20868;-61
2021/05/20 05:33:21;;;;;;;9.53;6.43;;;11.70;99.90;;;;;;4156018;28;20037;-60
2021/05/20 05:35:22;;;;;;;11.50;7.00;;;11.70;99.90;;;;;;4154442;28;20037;-61
2021/05/20 05:37:23;;;;;;;11.53;7.93;;;11.60;99.90;;;;;;4157103;28;20095;-61
2021/05/20 05:39:24;;;;;;;18.33;10.70;;;11.60;99.90;;;;;;4157340;28;20615;-61
2021/05/20 05:41:25;;;;;;;9.37;7.27;;;11.50;99.90;;;;;;4156556;28;20084;-63
2021/05/20 05:43:27;;;;;;;9.50;7.33;;;11.60;99.90;;;;;;4156713;28;20049;-62
2021/05/20 05:45:28;;;;;;;14.50;8.77;;;11.50;99.90;;;;;;4156662;28;20029;-62
2021/05/20 05:47:29;;;;;;;10.57;6.63;;;11.50;99.90;;;;;;4156835;28;20071;-61
2021/05/20 05:49:32;;;;;;;11.03;6.60;;;11.50;99.90;;;;;;4157072;28;20084;-63
2021/05/20 05:51:33;;;;;;;8.37;6.13;;;11.50;99.90;;;;;;4157212;28;20033;-63
2021/05/20 05:53:35;;;;;;;11.83;7.10;;;11.50;99.90;;;;;;4157463;28;20041;-60
2021/05/20 05:55:36;;;;;;;8.80;6.67;;;11.40;99.90;;;;;;4156704;28;20084;-64
2021/05/20 05:57:37;;;;;;;8.03;6.57;;;11.40;99.90;;;;;;4156881;28;20099;-61
2021/05/20 05:59:39;;;;;;;16.03;8.90;;;11.30;99.90;;;;;;4156162;28;20091;-61
2021/05/20 06:01:40;;;;;;;11.83;7.33;;;11.30;99.90;;;;;;4156172;28;20108;-62
2021/05/20 06:03:41;;;;;;;11.67;7.87;;;11.30;99.90;;;;;;4156381;28;20053;-62
2021/05/20 06:05:45;;;;;;;10.47;6.07;;;11.30;99.90;;;;;;4155966;28;20045;-67
2021/05/20 06:07:47;;;;;;;9.60;5.87;;;11.30;99.90;;;;;;4155867;28;20034;-63
2021/05/20 06:09:48;;;;;;;5.47;4.33;;;11.20;99.90;;;;;;4157063;28;20041;-63
2021/05/20 06:11:49;;;;;;;5.37;4.60;;;11.10;99.90;;;;;;4155546;28;20053;-62
2021/05/20 06:13:50;;;;;;;8.07;4.03;;;11.10;99.90;;;;;;4155957;28;20057;-63
2021/05/20 06:15:51;;;;;;;15.57;6.50;;;11.10;99.90;;;;;;4158153;28;20041;-62
2021/05/20 06:17:53;;;;;;;10.43;5.93;;;11.10;99.90;;;;;;4156051;28;20033;-74
2021/05/20 06:19:54;;;;;;;7.63;5.40;;;11.10;99.90;;;;;;4155610;28;20037;-64
2021/05/20 06:21:55;;;;;;;6.27;5.03;;;11.10;99.90;;;;;;4155067;28;20029;-62
2021/05/20 06:23:57;;;;;;;7.87;5.10;;;11.10;99.90;;;;;;4156538;28;20071;-68
2021/05/20 06:25:58;;;;;;;7.00;4.70;;;11.00;99.90;;;;;;4156532;28;20071;-66
2021/05/20 06:28:03;;;;;;;6.23;4.80;;;11.00;99.90;;;;;;4158571;28;20505;-61
2021/05/20 06:30:05;;;;;;;7.23;4.83;;;11.00;99.90;;;;;;4162863;28;20037;-67
2021/05/20 06:32:07;;;;;;;10.73;5.63;;;10.90;99.90;;;;;;4172609;28;20094;-60
2021/05/20 06:34:08;;;;;;;4.70;4.20;;;10.90;99.90;;;;;;4158671;28;20037;-61
2021/05/20 06:36:10;;;;;;;6.40;4.10;;;10.90;99.90;;;;;;4160594;28;20473;-61
2021/05/20 06:38:11;;;;;;;6.50;4.30;;;10.90;99.90;;;;;;4156597;28;20049;-62
2021/05/20 06:40:13;;;;;;;7.07;4.87;;;10.90;99.90;;;;;;4156121;28;20026;-61
2021/05/20 06:42:15;;;;;;;8.37;5.20;;;10.90;99.90;;;;;;4158936;28;20049;-62
2021/05/20 06:44:16;;;;;;;6.77;4.87;;;10.90;99.90;;;;;;4155832;28;21033;-60
2021/05/20 06:46:18;;;;;;;8.13;6.20;;;10.90;99.90;;;;;;4155268;28;20030;-59
2021/05/20 06:48:19;;;;;;;5.83;4.70;;;10.90;99.90;;;;;;4160614;28;20071;-61
2021/05/20 06:50:21;;;;;;;5.70;4.77;;;10.80;99.90;;;;;;4155130;28;20079;-70
2021/05/20 06:52:22;;;;;;;8.43;5.40;;;10.90;99.90;;;;;;4155179;28;20099;-61
2021/05/20 06:54:23;;;;;;;8.10;5.50;;;10.90;99.90;;;;;;4155731;28;20079;-61
2021/05/20 06:56:27;;;;;;;8.83;6.50;;;10.80;99.90;;;;;;4153821;28;20041;-61
2021/05/20 07:00:48;;;;;;;6.83;4.73;;;10.80;99.90;;;;;;4155351;28;20524;-62
2021/05/20 07:02:49;;;;;;;8.33;5.27;;;10.80;99.90;;;;;;4155339;28;20087;-61
2021/05/20 07:04:50;;;;;;;9.97;6.10;;;10.80;99.90;;;;;;4169852;28;20098;-61
2021/05/20 07:06:51;;;;;;;9.63;6.00;;;10.90;99.90;;;;;;4170923;28;20029;-61
2021/05/20 07:08:53;;;;;;;8.10;5.23;;;10.90;99.90;;;;;;4158676;28;20049;-61
2021/05/20 07:10:57;;;;;;;8.03;5.93;;;10.80;99.90;;;;;;4155557;28;20100;-61
2021/05/20 07:13:00;;;;;;;8.00;6.37;;;10.80;99.90;;;;;;4162091;28;20028;-62
2021/05/20 07:15:03;;;;;;;10.27;6.30;;;10.80;99.90;;;;;;4169393;28;20033;-61
2021/05/20 07:17:04;;;;;;;7.23;5.73;;;10.80;99.90;;;;;;4163315;28;20040;-61
2021/05/20 07:19:05;;;;;;;9.20;6.80;;;10.80;99.90;;;;;;4165965;28;20820;-60
2021/05/20 07:21:07;;;;;;;7.27;5.80;;;10.80;99.90;;;;;;4154561;28;20061;-61
2021/05/20 07:23:12;;;;;;;25.93;10.37;;;10.80;99.90;;;;;;4163913;28;20469;-64
2021/05/20 07:25:14;;;;;;;10.87;7.43;;;10.80;99.90;;;;;;4166787;28;20575;-62
2021/05/20 07:27:15;;;;;;;10.40;6.97;;;10.80;99.90;;;;;;4156636;28;20027;-62
2021/05/20 07:29:16;;;;;;;14.93;7.57;;;10.80;99.90;;;;;;4154776;28;20168;-61
2021/05/20 07:31:18;;;;;;;14.20;7.70;;;10.80;99.90;;;;;;4154906;28;20102;-60
2021/05/20 07:33:19;;;;;;;12.67;6.23;;;10.70;99.90;;;;;;4155948;28;20069;-62
2021/05/20 07:35:20;;;;;;;11.57;7.00;;;10.70;99.90;;;;;;4155631;28;20405;-61
2021/05/20 07:37:21;;;;;;;8.20;7.03;;;10.70;99.90;;;;;;4146240;28;20760;-62
2021/05/20 07:39:22;;;;;;;8.67;6.07;;;10.70;99.90;;;;;;4155141;28;20044;-62
2021/05/20 07:41:23;;;;;;;10.40;6.67;;;10.70;99.90;;;;;;4155826;28;20037;-62
2021/05/20 07:43:24;;;;;;;10.63;6.57;;;10.70;99.90;;;;;;4154803;28;20102;-60
2021/05/20 07:45:26;;;;;;;8.37;6.67;;;10.70;99.90;;;;;;4155276;28;20029;-61
2021/05/20 07:47:27;;;;;;;8.73;6.00;;;10.70;99.90;;;;;;4154663;28;20079;-62
2021/05/20 07:49:28;;;;;;;9.73;6.30;;;10.70;99.90;;;;;;4155423;28;20030;-61
2021/05/20 07:51:29;;;;;;;7.73;5.77;;;10.70;99.90;;;;;;4154973;28;20040;-61
2021/05/20 07:53:31;;;;;;;7.70;6.30;;;10.70;99.90;;;;;;4155093;28;20048;-60
2021/05/20 07:55:32;;;;;;;9.73;7.20;;;10.70;99.90;;;;;;4154843;28;20488;-60
2021/05/20 07:57:33;;;;;;;11.17;7.80;;;10.70;99.90;;;;;;4154644;28;20507;-61
2021/05/20 07:59:34;;;;;;;8.20;6.90;;;10.70;99.90;;;;;;4155065;28;20025;-62
2021/05/20 08:01:36;;;;;;;9.20;6.90;;;10.70;99.90;;;;;;4154974;28;20183;-61
2021/05/20 08:03:46;;;;;;;11.20;8.00;;;10.70;99.90;;;;;;4155158;28;20516;-62
2021/05/20 08:12:13;;;;;;;8.98;5.35;;;10.80;99.90;;;;;;4154832;28;20087;-60
2021/05/20 08:14:14;;;;;;;14.00;7.23;;;10.80;99.90;;;;;;4154450;28;20143;-60
2021/05/20 08:16:16;;;;;;;11.60;7.20;;;10.80;99.90;;;;;;4154221;28;20041;-61
2021/05/20 08:18:17;;;;;;;11.47;7.23;;;10.80;99.90;;;;;;4154969;28;20520;-62
2021/05/20 08:20:18;;;;;;;11.00;7.00;;;10.80;99.90;;;;;;4155454;28;20543;-62
2021/05/20 08:22:19;;;;;;;7.70;6.07;;;10.80;99.90;;;;;;4155063;28;20432;-62
2021/05/20 08:24:20;;;;;;;8.83;5.33;;;10.80;99.90;;;;;;4155847;28;20045;-61
2021/05/20 08:26:25;;;;;;;8.17;5.67;;;10.80;99.90;;;;;;4148376;28;20069;-63
2021/05/20 08:28:26;;;;;;;7.17;5.83;;;10.80;99.90;;;;;;4137748;28;20527;-62
2021/05/20 08:30:27;;;;;;;7.33;5.87;;;10.80;99.90;;;;;;4138032;28;20022;-64
2021/05/20 08:32:28;;;;;;;10.37;6.50;;;10.80;99.90;;;;;;4138320;28;20113;-63
2021/05/20 08:34:30;;;;;;;9.00;6.37;;;10.80;99.90;;;;;;4138114;28;20084;-62
2021/05/20 08:36:32;;;;;;;8.67;7.00;;;10.80;99.90;;;;;;4148832;28;20017;-62
2021/05/20 08:38:33;;;;;;;8.53;5.93;;;10.80;99.90;;;;;;4154169;28;20029;-61
2021/05/20 08:40:34;;;;;;;8.80;7.27;;;10.80;99.90;;;;;;4154137;28;20042;-63
2021/05/20 08:42:36;;;;;;;11.73;7.03;;;10.80;99.90;;;;;;4157860;28;20107;-62
2021/05/20 08:44:37;;;;;;;8.70;6.17;;;10.80;99.90;;;;;;4146340;28;20042;-61
2021/05/20 08:46:39;;;;;;;8.60;5.70;;;10.80;99.90;;;;;;4156021;28;20092;-60
2021/05/20 08:48:40;;;;;;;7.27;5.37;;;10.80;99.90;;;;;;4157929;28;20033;-72
2021/05/20 08:50:41;;;;;;;7.23;5.77;;;10.80;99.90;;;;;;4158236;28;20115;-63
2021/05/20 08:52:44;;;;;;;6.63;5.77;;;10.90;99.90;;;;;;4157524;28;20033;-62
2021/05/20 08:54:45;;;;;;;8.73;6.50;;;10.90;99.90;;;;;;4158146;28;20049;-63
2021/05/20 08:56:47;;;;;;;12.03;6.73;;;10.90;99.90;;;;;;4157696;28;20091;-60
2021/05/20 08:58:48;;;;;;;8.20;6.33;;;10.90;99.90;;;;;;4155642;28;20516;-61
2021/05/20 09:00:50;;;;;;;10.00;6.00;;;10.90;99.90;;;;;;4140845;28;20088;-62
2021/05/20 09:02:51;;;;;;;7.10;5.77;;;10.90;99.90;;;;;;4143477;28;20050;-62
2021/05/20 09:05:01;;;;;;;8.93;6.10;;;10.90;99.90;;;;;;4156798;28;20025;-62
2021/05/20 09:07:07;;;;;;;8.65;6.10;;;10.90;99.90;;;;;;4156725;28;20029;-61
2021/05/20 09:09:13;;;;;;;7.23;6.00;;;10.90;99.90;;;;;;4152960;28;20072;-63
2021/05/20 09:11:23;;;;;;;12.23;6.47;;;10.90;99.90;;;;;;4158050;28;20041;-63
2021/05/20 09:13:25;;;;;;;9.57;5.60;;;10.80;99.90;;;;;;4157449;28;20037;-61
2021/05/20 09:15:29;;;;;;;8.70;6.67;;;10.80;99.90;;;;;;4157177;28;20539;-62
2021/05/20 09:17:30;;;;;;;10.57;7.77;;;10.80;99.90;;;;;;4157626;28;20544;-62
2021/05/20 09:19:31;;;;;;;9.20;6.90;;;10.80;99.90;;;;;;4157331;28;20033;-62
2021/05/20 09:21:32;;;;;;;9.93;6.87;;;10.80;99.90;;;;;;4157457;28;20072;-64
2021/05/20 09:23:33;;;;;;;8.83;6.87;;;10.80;99.90;;;;;;4157303;28;20057;-73
2021/05/20 09:25:36;;;;;;;7.20;5.83;;;10.80;99.90;;;;;;4157358;28;20569;-62
2021/05/20 09:27:40;;;;;;;8.27;6.77;;;10.80;99.90;;;;;;4156183;28;20150;-62
2021/05/20 09:30:21;;;;;;;9.00;6.67;;;10.80;99.90;;;;;;4157672;28;20029;-61
2021/05/20 09:32:22;;;;;;;8.52;5.97;;;10.80;99.90;;;;;;4157176;28;20045;-62
2021/05/20 09:34:23;;;;;;;9.43;6.80;;;10.80;99.90;;;;;;4156826;28;20316;-65
2021/05/20 09:36:25;;;;;;;7.27;5.97;;;10.80;99.90;;;;;;4156569;28;20110;-65
2021/05/20 09:38:27;;;;;;;9.30;6.63;;;10.70;99.90;;;;;;4157750;28;20186;-62
2021/05/20 09:40:33;;;;;;;9.70;6.80;;;10.70;99.90;;;;;;4156967;28;20042;-63
2021/05/20 09:42:34;;;;;;;7.57;6.10;;;10.70;99.90;;;;;;4151176;28;20038;-63
2021/05/20 09:44:35;;;;;;;7.77;5.97;;;10.70;99.90;;;;;;4140476;28;20042;-62
2021/05/20 09:46:45;;;;;;;7.30;6.07;;;10.60;99.90;;;;;;4141326;28;20022;-62
2021/05/20 09:48:48;;;;;;;5.82;5.22;;;10.60;99.90;;;;;;4140290;28;20029;-64
2021/05/20 09:50:51;;;;;;;8.97;6.93;;;10.60;99.90;;;;;;4141036;28;20483;-62
2021/05/20 09:53:01;;;;;;;12.73;8.40;;;10.60;99.90;;;;;;4140453;28;20401;-63
2021/05/20 09:55:15;;;;;;;7.57;5.33;;;10.60;99.90;;;;;;4141890;28;20103;-63
2021/05/20 09:57:30;;;;;;;7.90;6.83;;;10.60;99.90;;;;;;4153984;28;20398;-63
2021/05/20 09:59:31;;;;;;;10.20;7.93;;;10.60;99.90;;;;;;4157370;28;20428;-62
2021/05/20 10:01:34;;;;;;;12.03;7.13;;;10.60;99.90;;;;;;4155456;28;20039;-61
2021/05/20 10:03:53;;;;;;;9.43;6.77;;;10.70;99.90;;;;;;4145997;28;20081;-62
2021/05/20 10:05:59;;;;;;;7.10;6.00;;;10.70;99.90;;;;;;4155919;28;20111;-63
2021/05/20 10:08:12;;;;;;;9.90;6.00;;;10.70;99.90;;;;;;4155795;28;20037;-62
2021/05/20 10:10:14;;;;;;;7.87;6.27;;;10.70;99.90;;;;;;4156014;28;21047;-62
2021/05/20 10:12:16;;;;;;;7.40;5.67;;;10.70;99.90;;;;;;4156776;28;20033;-62
2021/05/20 10:14:17;;;;;;;8.87;6.03;;;10.70;99.90;;;;;;4156454;28;20075;-62
2021/05/20 10:16:19;;;;;;;8.83;6.73;;;10.70;99.90;;;;;;4156640;28;20030;-62
2021/05/20 10:18:24;;;;;;;6.00;4.93;;;10.70;99.90;;;;;;4156252;28;20555;-62
2021/05/20 10:20:25;;;;;;;8.70;6.20;;;10.70;99.90;;;;;;4156095;28;20572;-60
2021/05/20 10:22:27;;;;;;;8.73;6.13;;;10.70;99.90;;;;;;4156951;28;20068;-61
2021/05/20 10:24:29;;;;;;;11.63;7.33;;;10.70;99.90;;;;;;4148196;28;20123;-61
2021/05/20 10:26:30;;;;;;;8.80;6.90;;;10.70;99.90;;;;;;4144235;28;20025;-62
2021/05/20 10:28:31;;;;;;;7.90;5.73;;;10.70;99.90;;;;;;4146641;28;20088;-60
2021/05/20 10:30:34;;;;;;;10.23;5.67;;;10.70;99.90;;;;;;4140903;28;20061;-61
2021/05/20 10:32:36;;;;;;;6.57;5.17;;;10.80;99.90;;;;;;4139947;28;20084;-60
2021/05/20 10:34:57;;;;;;;7.83;6.17;;;10.80;99.90;;;;;;4139432;28;20595;-61
2021/05/20 10:36:59;;;;;;;8.23;5.72;;;10.80;99.90;;;;;;4140617;28;20034;-61
2021/05/20 10:39:21;;;;;;;7.20;4.90;;;10.80;99.90;;;;;;4140814;28;20034;-61
2021/05/20 10:41:27;;;;;;;6.70;5.07;;;10.80;99.90;;;;;;4140156;28;20041;-61
2021/05/20 10:43:29;;;;;;;7.73;6.07;;;10.90;99.90;;;;;;4140137;28;20058;-60
2021/05/20 10:45:30;;;;;;;11.93;7.57;;;10.90;99.90;;;;;;4143618;28;20782;-62